Marcel — ONDP — position and weather

sailwx.info

Track history (hours):
 
Tides and Currents Weather Stations Pressure Air Temp Water Temp Dewpoint Dewpoint Depression Visibility Wind Speed Wind Dir Waves Ship Positions

Marcel

Last reported at 2014-Oct-18 10:13 UTC. Time now 2014-Oct-20 08:07 UTC.
Position N 50°55' E 001°10'.

Length 88 m; draft 5.5 m.

Type: Cargo ship. MMSI: 205439000.

Date/timePositionNaut miles runAvg speedWind from/ knotsBaromVisibWave heightAir tempDewpointWater temp
2014-Oct-18 10:13N 50°55' E 001°10'5 7.6
2014-Oct-18 09:33N 50°59' E 001°16'7 6.9
2014-Oct-18 08:33N 51°03' E 001°24'7 6.7
2014-Oct-18 07:34N 51°07' E 001°32'7 6.8
2014-Oct-18 06:33N 51°12' E 001°41'8 8.1
2014-Oct-18 05:34N 51°18' E 001°49'9 9.0
2014-Oct-18 04:33N 51°25' E 001°58'9 9.5
2014-Oct-18 03:33N 51°32' E 002°08'10 9.4
2014-Oct-18 02:31N 51°39' E 002°19'57 8.1
2014-Oct-17 19:32N 52°03' E 003°43'8 8.6
2014-Oct-17 18:33N 52°02' E 003°56'1010.0
2014-Oct-17 17:34N 51°57' E 004°10'7 7.3
2014-Oct-17 16:33N 51°54' E 004°21'0 0.1
2014-Oct-17 15:32N 51°54' E 004°21'0 0.0
2014-Oct-17 14:21N 51°54' E 004°21'0 0.0
2014-Oct-17 13:23N 51°54' E 004°21'0 0.0
2014-Oct-17 12:28N 51°54' E 004°21'0 0.0
2014-Oct-17 11:21N 51°54' E 004°21'0 0.0
2014-Oct-17 10:33N 51°54' E 004°21'0 0.0
2014-Oct-17 09:21N 51°54' E 004°21'0 0.0
2014-Oct-17 08:28N 51°54' E 004°21'0 0.0
2014-Oct-17 07:20N 51°54' E 004°21'0 0.0
2014-Oct-17 06:28N 51°54' E 004°21'0 0.0
2014-Oct-17 05:30N 51°54' E 004°21'0 0.0
2014-Oct-17 04:27N 51°54' E 004°21'0 0.0
2014-Oct-17 03:30N 51°54' E 004°21'0 0.0
2014-Oct-17 02:29N 51°54' E 004°21'0 0.2
2014-Oct-17 01:33N 51°54' E 004°21'6 5.8
2014-Oct-17 00:33N 51°56' E 004°12'8 7.9
2014-Oct-16 23:34N 51°60' E 004°01'9 8.2
2014-Oct-16 22:27N 51°60' E 003°46'910.0
2014-Oct-16 21:32N 51°56' E 003°32'1010.3
2014-Oct-16 20:32N 51°53' E 003°16'1110.9
2014-Oct-16 19:33N 51°49' E 003°01'1111.2
2014-Oct-16 18:33N 51°44' E 002°45'1110.3
2014-Oct-16 17:31N 51°33' E 002°43'1111.3
2014-Oct-16 16:33N 51°22' E 002°45'8 8.1
2014-Oct-16 15:34N 51°16' E 002°53'3 2.9
2014-Oct-16 14:33N 51°13' E 002°56'0 0.4
2014-Oct-16 13:33N 51°13' E 002°56'0 0.0
2014-Oct-16 12:30N 51°13' E 002°56'0 0.0
2014-Oct-16 11:31N 51°13' E 002°56'0 0.0
2014-Oct-16 10:31N 51°13' E 002°56'0 0.0
2014-Oct-16 09:32N 51°13' E 002°56'0 0.0
2014-Oct-16 08:32N 51°13' E 002°56'0 0.0
2014-Oct-16 07:29N 51°13' E 002°56'0 0.0
2014-Oct-16 06:18N 51°13' E 002°56'0 0.0
2014-Oct-16 05:28N 51°13' E 002°56'0 0.0
2014-Oct-16 04:32N 51°13' E 002°56'0 0.0
2014-Oct-16 03:33N 51°13' E 002°56'0 0.0
2014-Oct-16 02:33N 51°13' E 002°56'0 0.0
2014-Oct-16 01:29N 51°13' E 002°56'0 0.0
2014-Oct-16 00:14N 51°13' E 002°56'0 0.0
2014-Oct-15 23:33N 51°13' E 002°56'0 0.0
2014-Oct-15 22:30N 51°13' E 002°56'0 0.0
2014-Oct-15 21:14N 51°13' E 002°56'0 0.0
2014-Oct-15 20:32N 51°13' E 002°56'0 0.0
2014-Oct-15 19:28N 51°13' E 002°56'0 0.0
2014-Oct-15 18:30N 51°13' E 002°56'0 0.0
2014-Oct-15 17:25N 51°13' E 002°56'0 0.0
2014-Oct-15 16:32N 51°13' E 002°56'0 0.0
2014-Oct-15 15:31N 51°13' E 002°56'0 0.0
2014-Oct-15 14:33N 51°13' E 002°56'0 0.0
2014-Oct-15 13:32N 51°13' E 002°56'0 0.0
2014-Oct-15 12:25N 51°13' E 002°56'0 0.0
2014-Oct-15 11:27N 51°13' E 002°56'0 0.0
2014-Oct-15 10:17N 51°13' E 002°56'0 0.0
2014-Oct-15 08:24N 51°13' E 002°56'0 0.0
2014-Oct-15 07:31N 51°13' E 002°56'0 0.0
2014-Oct-15 06:23N 51°13' E 002°56'0 0.0
2014-Oct-15 05:18N 51°13' E 002°56'1 0.7
2014-Oct-15 04:32N 51°14' E 002°56'3 3.2
2014-Oct-15 03:33N 51°16' E 002°53'9 8.4
2014-Oct-15 02:31N 51°22' E 002°42'6 5.8
2014-Oct-15 01:33N 51°21' E 002°33'1 1.2
2014-Oct-15 00:33N 51°20' E 002°32'0 0.0
2014-Oct-14 23:33N 51°20' E 002°31'0 0.0
2014-Oct-14 22:32N 51°20' E 002°32'0 0.1
2014-Oct-14 21:32N 51°20' E 002°32'0 0.1
2014-Oct-14 20:33N 51°20' E 002°32'3 2.9
2014-Oct-14 19:33N 51°21' E 002°27'1110.2
2014-Oct-14 18:27N 51°15' E 002°12'1010.8
2014-Oct-14 17:33N 51°10' E 001°58'1211.3
2014-Oct-14 16:30N 51°03' E 001°43'  
Track history (hours):
 
Tides and Currents Weather Stations Pressure Air Temp Water Temp Dewpoint Dewpoint Depression Visibility Wind Speed Wind Dir Waves Ship Positions

Marcel

Last reported at 2014-Oct-18 10:13 UTC. Time now 2014-Oct-20 08:07 UTC.
Position N 50°55' E 001°10'.

Length 88 m; draft 5.5 m.

Type: Cargo ship. MMSI: 205439000.

Date/timePositionNaut miles runAvg speedWind from/ knotsBaromVisibWave heightAir tempDewpointWater temp
2014-Oct-18 10:13N 50°55' E 001°10'5 7.6
2014-Oct-18 09:33N 50°59' E 001°16'7 6.9
2014-Oct-18 08:33N 51°03' E 001°24'7 6.7
2014-Oct-18 07:34N 51°07' E 001°32'7 6.8
2014-Oct-18 06:33N 51°12' E 001°41'8 8.1
2014-Oct-18 05:34N 51°18' E 001°49'9 9.0
2014-Oct-18 04:33N 51°25' E 001°58'9 9.5
2014-Oct-18 03:33N 51°32' E 002°08'10 9.4
2014-Oct-18 02:31N 51°39' E 002°19'57 8.1
2014-Oct-17 19:32N 52°03' E 003°43'8 8.6
2014-Oct-17 18:33N 52°02' E 003°56'1010.0
2014-Oct-17 17:34N 51°57' E 004°10'7 7.3
2014-Oct-17 16:33N 51°54' E 004°21'0 0.1
2014-Oct-17 15:32N 51°54' E 004°21'0 0.0
2014-Oct-17 14:21N 51°54' E 004°21'0 0.0
2014-Oct-17 13:23N 51°54' E 004°21'0 0.0
2014-Oct-17 12:28N 51°54' E 004°21'0 0.0
2014-Oct-17 11:21N 51°54' E 004°21'0 0.0
2014-Oct-17 10:33N 51°54' E 004°21'0 0.0
2014-Oct-17 09:21N 51°54' E 004°21'0 0.0
2014-Oct-17 08:28N 51°54' E 004°21'0 0.0
2014-Oct-17 07:20N 51°54' E 004°21'0 0.0
2014-Oct-17 06:28N 51°54' E 004°21'0 0.0
2014-Oct-17 05:30N 51°54' E 004°21'0 0.0
2014-Oct-17 04:27N 51°54' E 004°21'0 0.0
2014-Oct-17 03:30N 51°54' E 004°21'0 0.0
2014-Oct-17 02:29N 51°54' E 004°21'0 0.2
2014-Oct-17 01:33N 51°54' E 004°21'6 5.8
2014-Oct-17 00:33N 51°56' E 004°12'8 7.9
2014-Oct-16 23:34N 51°60' E 004°01'9 8.2
2014-Oct-16 22:27N 51°60' E 003°46'910.0
2014-Oct-16 21:32N 51°56' E 003°32'1010.3
2014-Oct-16 20:32N 51°53' E 003°16'1110.9
2014-Oct-16 19:33N 51°49' E 003°01'1111.2
2014-Oct-16 18:33N 51°44' E 002°45'1110.3
2014-Oct-16 17:31N 51°33' E 002°43'1111.3
2014-Oct-16 16:33N 51°22' E 002°45'8 8.1
2014-Oct-16 15:34N 51°16' E 002°53'3 2.9
2014-Oct-16 14:33N 51°13' E 002°56'0 0.4
2014-Oct-16 13:33N 51°13' E 002°56'0 0.0
2014-Oct-16 12:30N 51°13' E 002°56'0 0.0
2014-Oct-16 11:31N 51°13' E 002°56'0 0.0
2014-Oct-16 10:31N 51°13' E 002°56'0 0.0
2014-Oct-16 09:32N 51°13' E 002°56'0 0.0
2014-Oct-16 08:32N 51°13' E 002°56'0 0.0
2014-Oct-16 07:29N 51°13' E 002°56'0 0.0
2014-Oct-16 06:18N 51°13' E 002°56'0 0.0
2014-Oct-16 05:28N 51°13' E 002°56'0 0.0
2014-Oct-16 04:32N 51°13' E 002°56'0 0.0
2014-Oct-16 03:33N 51°13' E 002°56'0 0.0
2014-Oct-16 02:33N 51°13' E 002°56'0 0.0
2014-Oct-16 01:29N 51°13' E 002°56'0 0.0
2014-Oct-16 00:14N 51°13' E 002°56'0 0.0
2014-Oct-15 23:33N 51°13' E 002°56'0 0.0
2014-Oct-15 22:30N 51°13' E 002°56'0 0.0
2014-Oct-15 21:14N 51°13' E 002°56'0 0.0
2014-Oct-15 20:32N 51°13' E 002°56'0 0.0
2014-Oct-15 19:28N 51°13' E 002°56'0 0.0
2014-Oct-15 18:30N 51°13' E 002°56'0 0.0
2014-Oct-15 17:25N 51°13' E 002°56'0 0.0
2014-Oct-15 16:32N 51°13' E 002°56'0 0.0
2014-Oct-15 15:31N 51°13' E 002°56'0 0.0
2014-Oct-15 14:33N 51°13' E 002°56'0 0.0
2014-Oct-15 13:32N 51°13' E 002°56'0 0.0
2014-Oct-15 12:25N 51°13' E 002°56'0 0.0
2014-Oct-15 11:27N 51°13' E 002°56'0 0.0
2014-Oct-15 10:17N 51°13' E 002°56'0 0.0
2014-Oct-15 08:24N 51°13' E 002°56'0 0.0
2014-Oct-15 07:31N 51°13' E 002°56'0 0.0
2014-Oct-15 06:23N 51°13' E 002°56'0 0.0
2014-Oct-15 05:18N 51°13' E 002°56'1 0.7
2014-Oct-15 04:32N 51°14' E 002°56'3 3.2
2014-Oct-15 03:33N 51°16' E 002°53'9 8.4
2014-Oct-15 02:31N 51°22' E 002°42'6 5.8
2014-Oct-15 01:33N 51°21' E 002°33'1 1.2
2014-Oct-15 00:33N 51°20' E 002°32'0 0.0
2014-Oct-14 23:33N 51°20' E 002°31'0 0.0
2014-Oct-14 22:32N 51°20' E 002°32'0 0.1
2014-Oct-14 21:32N 51°20' E 002°32'0 0.1
2014-Oct-14 20:33N 51°20' E 002°32'3 2.9
2014-Oct-14 19:33N 51°21' E 002°27'1110.2
2014-Oct-14 18:27N 51°15' E 002°12'1010.8
2014-Oct-14 17:33N 51°10' E 001°58'1211.3
2014-Oct-14 16:30N 51°03' E 001°43'  

Dump ship's entire track history